Time;durP1;ratioP1;P1;durP2;ratioP2;P2;SDS_P1;SDS_P2;PMS_P1;PMS_P2;Temp;Humidity;BMP_temperature;BMP_pressure;BME280_temperature;BME280_humidity;BME280_pressure;Samples;Min_cycle;Max_cycle;Signal;HPM_P1;HPM_P2
2024/03/28 00:01:29;;;;;;;12.50;7.20;;;;;;;10.38;100.00;96567.88;109546;1251;59738;-73
2024/03/28 00:03:55;;;;;;;9.10;6.90;;;;;;;10.39;100.00;96562.38;109616;1251;59882;-73
2024/03/28 00:06:22;;;;;;;10.10;6.60;;;;;;;10.39;100.00;96559.69;109621;1250;60152;-74
2024/03/28 00:08:48;;;;;;;10.70;7.60;;;;;;;10.40;100.00;96563.35;109612;1251;59867;-74
2024/03/28 00:11:14;;;;;;;7.90;6.60;;;;;;;10.40;100.00;96558.59;109594;1251;59807;-74
2024/03/28 00:13:41;;;;;;;11.90;7.80;;;;;;;10.40;100.00;96554.50;109328;1250;59828;-74
2024/03/28 00:16:07;;;;;;;10.10;7.90;;;;;;;10.38;100.00;96552.86;109629;1251;59946;-74
2024/03/28 00:18:35;;;;;;;8.30;6.10;;;;;;;10.35;100.00;96544.00;109585;1251;59906;-75
2024/03/28 00:21:02;;;;;;;11.40;6.90;;;;;;;10.31;100.00;96543.98;109658;1251;59765;-74
2024/03/28 00:23:29;;;;;;;10.30;7.20;;;;;;;10.28;100.00;96547.15;109558;1250;73466;-74
2024/03/28 00:25:58;;;;;;;9.90;6.60;;;;;;;10.25;100.00;96533.98;109551;1251;60058;-74
2024/03/28 00:28:25;;;;;;;10.70;7.20;;;;;;;10.24;100.00;96521.16;109606;1250;59737;-73
2024/03/28 00:30:52;;;;;;;10.50;7.10;;;;;;;10.24;100.00;96524.01;109583;1251;66903;-73
2024/03/28 00:33:19;;;;;;;9.90;7.80;;;;;;;10.21;100.00;96527.55;109639;1251;60617;-74
2024/03/28 00:35:47;;;;;;;9.80;6.70;;;;;;;10.17;100.00;96523.71;109593;1251;64064;-74
2024/03/28 00:38:15;;;;;;;11.60;6.50;;;;;;;10.13;100.00;96511.35;109608;1250;59743;-74
2024/03/28 00:40:53;;;;;;;8.70;7.30;;;;;;;10.11;100.00;96511.55;109567;1251;59775;-74
2024/03/28 00:43:20;;;;;;;10.40;7.00;;;;;;;10.08;100.00;96511.05;109603;1250;68110;-73
2024/03/28 00:45:46;;;;;;;9.30;6.60;;;;;;;10.08;100.00;96506.54;109653;1251;60020;-73
2024/03/28 00:48:18;;;;;;;7.50;6.30;;;;;;;10.07;100.00;96497.23;109588;1251;63741;-75
2024/03/28 00:51:11;;;;;;;8.30;6.10;;;;;;;10.09;100.00;96496.10;109574;1250;59965;-74
2024/03/28 00:53:37;;;;;;;8.40;6.10;;;;;;;10.13;100.00;96493.45;109006;1259;59858;-73
2024/03/28 00:56:03;;;;;;;8.20;5.80;;;;;;;10.18;100.00;96488.98;108961;1260;59895;-74
2024/03/28 00:58:29;;;;;;;7.80;6.30;;;;;;;10.22;100.00;96484.86;108887;1260;59851;-73
2024/03/28 01:00:56;;;;;;;8.80;6.30;;;;;;;10.26;100.00;96482.29;108933;1259;59880;-74
2024/03/28 01:03:22;;;;;;;8.70;5.70;;;;;;;10.28;100.00;96480.63;108955;1260;60148;-73
2024/03/28 01:05:57;;;;;;;10.50;6.20;;;;;;;10.32;100.00;96484.34;108957;1260;60258;-74
2024/03/28 01:08:23;;;;;;;8.80;7.00;;;;;;;10.34;100.00;96484.29;108994;1259;65318;-74
2024/03/28 01:10:49;;;;;;;10.40;6.90;;;;;;;10.34;100.00;96479.13;108957;1260;59966;-72
2024/03/28 01:13:16;;;;;;;10.40;6.70;;;;;;;10.35;100.00;96476.24;108950;1259;59864;-74
2024/03/28 01:15:42;;;;;;;10.50;6.50;;;;;;;10.34;100.00;96472.20;108917;1259;60024;-74
2024/03/28 01:18:09;;;;;;;10.90;6.70;;;;;;;10.32;100.00;96468.83;108952;1260;59840;-74
2024/03/28 01:20:35;;;;;;;7.80;6.40;;;;;;;10.31;100.00;96464.33;108949;1259;59852;-74
2024/03/28 01:23:02;;;;;;;9.10;6.80;;;;;;;10.31;100.00;96459.60;108971;1259;59940;-74
2024/03/28 01:25:29;;;;;;;8.80;6.90;;;;;;;10.32;100.00;96462.86;108989;1259;62508;-74
2024/03/28 01:27:56;;;;;;;12.60;7.40;;;;;;;10.32;100.00;96469.60;108958;1259;59893;-73
2024/03/28 01:30:22;;;;;;;10.90;7.00;;;;;;;10.31;100.00;96481.09;109210;1250;59931;-73
2024/03/28 01:32:49;;;;;;;13.00;8.00;;;;;;;10.30;100.00;96490.02;109609;1250;59732;-74
2024/03/28 01:35:15;;;;;;;8.60;6.50;;;;;;;10.29;100.00;96495.07;109627;1250;59801;-74
2024/03/28 01:37:42;;;;;;;9.70;6.60;;;;;;;10.27;100.00;96495.13;109602;1250;59845;-75
2024/03/28 01:40:09;;;;;;;11.50;6.70;;;;;;;10.25;100.00;96486.12;109553;1250;59720;-75
2024/03/28 01:42:36;;;;;;;9.10;6.80;;;;;;;10.23;100.00;96480.22;109624;1250;59735;-74
2024/03/28 01:45:02;;;;;;;9.40;6.80;;;;;;;10.23;100.00;96479.15;109615;1250;66827;-73
2024/03/28 01:47:29;;;;;;;12.10;5.80;;;;;;;10.27;100.00;96482.38;109642;1250;60221;-74
2024/03/28 01:49:57;;;;;;;11.60;6.90;;;;;;;10.29;100.00;96483.73;109605;1250;63774;-73
2024/03/28 01:52:24;;;;;;;11.60;6.40;;;;;;;10.33;100.00;96482.80;109646;1250;59752;-74
2024/03/28 01:54:50;;;;;;;12.70;6.40;;;;;;;10.40;100.00;96487.77;109632;1251;59918;-74
2024/03/28 01:57:17;;;;;;;9.40;6.40;;;;;;;10.44;100.00;96492.65;109559;1251;65429;-74
2024/03/28 01:59:44;;;;;;;10.40;6.70;;;;;;;10.48;100.00;96486.48;109607;1250;59983;-74
2024/03/28 02:02:11;;;;;;;11.60;6.50;;;;;;;10.52;100.00;96482.90;109592;1250;64046;-75
2024/03/28 02:04:37;;;;;;;12.60;6.50;;;;;;;10.57;100.00;96482.02;109568;1251;59768;-74
2024/03/28 02:07:03;;;;;;;12.10;5.90;;;;;;;10.63;100.00;96480.13;109616;1250;59925;-74
2024/03/28 02:09:30;;;;;;;10.90;5.10;;;;;;;10.68;100.00;96471.80;109383;1250;59884;-74
2024/03/28 02:11:58;;;;;;;11.00;5.80;;;;;;;10.72;100.00;96463.51;109629;1250;60819;-73
2024/03/28 02:14:25;;;;;;;13.20;6.00;;;;;;;10.76;100.00;96455.86;109545;1250;64101;-74
2024/03/28 02:16:51;;;;;;;9.60;6.00;;;;;;;10.77;100.00;96452.14;109599;1250;59720;-74
2024/03/28 02:19:17;;;;;;;11.60;5.40;;;;;;;10.79;100.00;96451.13;109627;1250;59855;-74
2024/03/28 02:21:47;;;;;;;14.20;6.00;;;;;;;10.80;100.00;96451.54;109599;1250;59813;-73
2024/03/28 02:24:13;;;;;;;11.40;6.80;;;;;;;10.80;100.00;96446.70;109642;1250;60212;-74
2024/03/28 02:26:40;;;;;;;15.60;6.10;;;;;;;10.80;100.00;96436.61;109578;1250;60021;-74
2024/03/28 02:29:06;;;;;;;12.40;7.40;;;;;;;10.80;100.00;96431.45;109561;1250;60114;-74
2024/03/28 02:31:32;;;;;;;12.90;6.80;;;;;;;10.85;100.00;96433.41;109622;1250;59782;-74
2024/03/28 02:33:59;;;;;;;13.90;7.00;;;;;;;10.91;100.00;96425.81;109594;1250;59800;-73
2024/03/28 02:36:25;;;;;;;13.70;6.30;;;;;;;10.95;100.00;96423.85;109639;1250;59962;-74
2024/03/28 02:38:51;;;;;;;12.70;8.00;;;;;;;10.98;100.00;96420.17;109575;1250;60254;-74
2024/03/28 02:41:21;;;;;;;15.10;7.10;;;;;;;11.02;100.00;96411.61;109322;1250;59851;-74
2024/03/28 02:43:48;;;;;;;14.60;7.50;;;;;;;11.07;100.00;96408.27;109630;1250;59882;-75
2024/03/28 02:46:14;;;;;;;15.00;6.10;;;;;;;11.12;100.00;96416.54;109588;1250;59754;-74
2024/03/28 02:48:41;;;;;;;16.70;6.60;;;;;;;11.13;100.00;96421.15;109594;1250;60049;-74
2024/03/28 02:51:08;;;;;;;17.40;7.00;;;;;;;11.12;100.00;96416.65;109411;1250;65304;-74
2024/03/28 02:53:34;;;;;;;17.50;7.20;;;;;;;11.13;100.00;96415.12;109587;1250;59784;-74
2024/03/28 02:56:00;;;;;;;18.20;7.30;;;;;;;11.16;100.00;96414.51;109578;1250;59904;-73
2024/03/28 02:58:27;;;;;;;13.90;6.60;;;;;;;11.16;100.00;96412.33;109385;1250;59785;-75
2024/03/28 03:00:54;;;;;;;16.40;6.50;;;;;;;11.17;100.00;96409.39;109585;1250;66740;-74
2024/03/28 03:03:20;;;;;;;16.70;7.00;;;;;;;11.20;100.00;96410.30;109593;1251;60638;-75
2024/03/28 03:05:51;;;;;;;23.70;6.90;;;;;;;11.22;100.00;96406.37;109568;1250;59756;-74
2024/03/28 03:08:17;;;;;;;22.00;7.00;;;;;;;11.24;100.00;96400.99;109560;1250;60154;-75
2024/03/28 03:10:44;;;;;;;24.20;7.60;;;;;;;11.26;100.00;96396.83;109518;1250;59833;-74
2024/03/28 03:13:10;;;;;;;32.20;7.90;;;;;;;11.36;100.00;96395.70;109608;1250;59765;-75
2024/03/28 03:15:36;;;;;;;33.00;8.50;;;;;;;11.51;100.00;96392.61;109604;1250;59901;-75
2024/03/28 03:18:03;;;;;;;36.50;8.10;;;;;;;11.74;100.00;96393.66;109599;1250;59843;-73
2024/03/28 03:20:36;;;;;;;30.80;8.30;;;;;;;11.91;100.00;96386.73;109613;1250;59839;-74
2024/03/28 03:23:04;;;;;;;33.00;8.40;;;;;;;12.06;100.00;96387.52;109604;1250;66940;-73
2024/03/28 03:25:49;;;;;;;35.50;8.90;;;;;;;12.20;100.00;96382.45;109624;1250;60075;-75
2024/03/28 03:36:30;;;;;;;27.00;7.40;;;;;;;12.77;100.00;96378.58;109600;1250;65649;-73
2024/03/28 03:38:56;;;;;;;34.90;7.60;;;;;;;12.81;100.00;96377.20;109578;1250;59723;-74
2024/03/28 03:41:22;;;;;;;24.00;7.10;;;;;;;12.89;100.00;96374.23;109570;1250;60054;-75
2024/03/28 03:43:49;;;;;;;33.80;8.80;;;;;;;12.94;100.00;96371.53;109560;1250;59808;-74
2024/03/28 03:46:15;;;;;;;36.60;8.20;;;;;;;12.94;100.00;96370.09;109613;1250;59825;-74
2024/03/28 03:48:41;;;;;;;37.10;9.20;;;;;;;12.98;100.00;96362.64;109629;1250;59814;-75
2024/03/28 03:51:08;;;;;;;38.40;9.90;;;;;;;13.06;100.00;96366.38;109666;1250;59887;-74
2024/03/28 03:53:35;;;;;;;46.70;11.20;;;;;;;13.13;100.00;96354.63;109592;1250;60091;-73
2024/03/28 03:56:01;;;;;;;41.10;9.50;;;;;;;13.22;100.00;96347.39;109636;1250;59760;-73
2024/03/28 03:58:27;;;;;;;43.90;9.20;;;;;;;13.36;100.00;96349.23;109621;1250;59843;-74
2024/03/28 04:00:54;;;;;;;33.80;8.20;;;;;;;13.48;100.00;96349.42;109599;1250;59822;-73
2024/03/28 04:03:20;;;;;;;29.60;7.70;;;;;;;13.48;100.00;96335.30;109599;1252;59955;-74
2024/03/28 04:05:48;;;;;;;23.00;7.10;;;;;;;13.41;100.00;96340.93;109604;1250;59788;-74
2024/03/28 04:08:15;;;;;;;29.80;8.20;;;;;;;13.32;100.00;96346.36;109551;1250;59746;-75
2024/03/28 04:10:41;;;;;;;32.00;8.40;;;;;;;13.26;100.00;96345.84;109591;1252;59972;-74
2024/03/28 04:13:07;;;;;;;31.90;9.30;;;;;;;13.24;100.00;96338.16;109602;1250;60048;-75
2024/03/28 04:15:33;;;;;;;43.10;8.80;;;;;;;13.23;100.00;96336.21;109597;1250;59861;-74
2024/03/28 04:18:00;;;;;;;35.30;9.40;;;;;;;13.24;100.00;96339.44;109614;1250;59884;-74
2024/03/28 04:20:27;;;;;;;31.10;8.50;;;;;;;13.30;100.00;96343.58;109569;1250;59755;-75
2024/03/28 04:22:54;;;;;;;38.00;10.10;;;;;;;13.34;100.00;96346.51;109623;1250;59810;-73
2024/03/28 04:25:20;;;;;;;43.00;8.90;;;;;;;13.38;100.00;96339.16;109547;1251;66849;-73
2024/03/28 04:27:46;;;;;;;36.20;9.00;;;;;;;13.42;100.00;96339.16;109599;1250;59770;-76
2024/03/28 04:30:14;;;;;;;24.90;8.50;;;;;;;13.37;100.00;96353.06;109609;1250;59896;-75
2024/03/28 04:32:41;;;;;;;21.00;7.00;;;;;;;13.24;100.00;96356.06;109585;1250;60060;-74
2024/03/28 04:35:09;;;;;;;19.40;7.80;;;;;;;13.07;100.00;96361.86;109633;1250;59691;-73
2024/03/28 04:37:35;;;;;;;40.70;23.30;;;;;;;12.88;100.00;96358.90;109630;1250;66547;-74
2024/03/28 04:40:02;;;;;;;32.80;12.30;;;;;;;12.72;100.00;96364.52;109618;1250;59797;-74
2024/03/28 04:42:29;;;;;;;26.90;10.00;;;;;;;12.58;100.00;96378.92;109535;1250;62801;-75
2024/03/28 04:44:55;;;;;;;24.10;7.80;;;;;;;12.47;100.00;96378.30;109643;1250;60077;-74
2024/03/28 04:47:22;;;;;;;24.50;7.90;;;;;;;12.39;100.00;96387.92;109636;1250;59790;-74
2024/03/28 04:49:48;;;;;;;23.70;8.20;;;;;;;12.33;100.00;96391.30;109594;1250;60593;-74
2024/03/28 04:52:15;;;;;;;27.00;7.50;;;;;;;12.27;100.00;96387.34;109610;1250;59962;-74
2024/03/28 04:54:41;;;;;;;20.30;7.40;;;;;;;12.22;100.00;96378.73;109578;1250;59938;-74
2024/03/28 04:57:08;;;;;;;15.90;6.80;;;;;;;12.17;100.00;96380.58;109593;1250;59803;-74
2024/03/28 04:59:34;;;;;;;22.20;7.20;;;;;;;12.12;100.00;96381.06;109572;1250;59742;-73
2024/03/28 05:02:01;;;;;;;21.00;7.40;;;;;;;12.07;100.00;96381.48;109622;1250;59903;-73
2024/03/28 05:04:27;;;;;;;23.60;7.60;;;;;;;12.03;100.00;96370.05;109631;1250;59977;-74
2024/03/28 05:06:54;;;;;;;29.00;8.90;;;;;;;12.00;100.00;96351.05;109620;1250;60126;-74
2024/03/28 05:09:20;;;;;;;23.80;7.10;;;;;;;11.98;100.00;96346.29;109581;1251;60180;-74
2024/03/28 05:11:47;;;;;;;29.20;7.90;;;;;;;11.97;100.00;96352.04;109624;1250;59796;-74
2024/03/28 05:14:14;;;;;;;25.10;7.20;;;;;;;11.98;100.00;96348.86;109625;1250;60078;-74
2024/03/28 05:16:40;;;;;;;25.80;7.30;;;;;;;11.99;100.00;96350.02;109608;1250;59923;-75
2024/03/28 05:19:07;;;;;;;28.40;8.20;;;;;;;12.02;100.00;96346.79;109597;1250;59832;-74
2024/03/28 05:21:33;;;;;;;25.70;7.30;;;;;;;12.05;100.00;96349.11;109590;1250;59804;-74
2024/03/28 05:23:59;;;;;;;25.10;7.40;;;;;;;12.11;100.00;96358.08;109612;1250;59861;-74
2024/03/28 05:26:26;;;;;;;35.30;10.50;;;;;;;12.17;100.00;96358.34;109382;1250;60174;-74
2024/03/28 05:28:52;;;;;;;29.90;9.00;;;;;;;12.20;100.00;96350.98;109616;1250;60224;-74
2024/03/28 05:31:18;;;;;;;28.40;8.00;;;;;;;12.26;100.00;96349.81;109606;1250;60175;-74
2024/03/28 05:33:45;;;;;;;35.40;8.30;;;;;;;12.33;100.00;96358.19;109292;1250;59867;-74
2024/03/28 05:36:11;;;;;;;35.30;9.80;;;;;;;12.38;100.00;96370.98;109576;1251;59784;-76
2024/03/28 05:38:38;;;;;;;34.10;9.10;;;;;;;12.45;100.00;96379.94;109640;1250;59789;-77
2024/03/28 05:41:04;;;;;;;30.60;8.20;;;;;;;12.55;100.00;96382.70;109609;1250;59917;-77
2024/03/28 05:43:30;;;;;;;28.60;7.60;;;;;;;12.67;100.00;96385.61;109590;1250;60067;-76
2024/03/28 05:45:57;;;;;;;21.00;5.90;;;;;;;12.75;100.00;96382.47;109589;1250;60123;-77
2024/03/28 05:48:23;;;;;;;16.50;5.30;;;;;;;12.83;100.00;96392.21;109617;1250;59829;-78
2024/03/28 05:50:50;;;;;;;18.30;5.30;;;;;;;12.91;100.00;96395.56;109361;1250;60102;-78
2024/03/28 05:53:16;;;;;;;13.90;4.40;;;;;;;13.00;100.00;96403.23;109631;1250;59960;-77
2024/03/28 05:55:42;;;;;;;15.60;4.50;;;;;;;13.06;100.00;96407.67;109579;1250;59794;-77
2024/03/28 05:58:09;;;;;;;13.90;4.80;;;;;;;13.12;100.00;96406.84;109574;1250;59800;-77
2024/03/28 06:00:36;;;;;;;12.70;4.60;;;;;;;13.19;100.00;96410.80;109619;1250;59843;-77
2024/03/28 06:03:03;;;;;;;13.50;4.90;;;;;;;13.26;100.00;96409.01;109649;1250;60297;-77
2024/03/28 06:05:29;;;;;;;17.10;4.30;;;;;;;13.32;100.00;96407.89;109618;1250;59870;-78
2024/03/28 06:07:56;;;;;;;15.50;3.80;;;;;;;13.37;100.00;96407.66;109642;1250;59860;-78
2024/03/28 06:10:22;;;;;;;8.40;3.20;;;;;;;13.41;100.00;96402.25;109596;1250;59756;-78
2024/03/28 06:12:48;;;;;;;12.20;3.50;;;;;;;13.41;100.00;96397.52;109637;1250;59847;-76
2024/03/28 06:15:15;;;;;;;12.00;3.20;;;;;;;13.42;100.00;96394.90;109594;1250;59772;-77
2024/03/28 06:17:41;;;;;;;11.50;3.90;;;;;;;13.44;100.00;96396.65;109631;1250;59827;-77
2024/03/28 06:20:08;;;;;;;15.70;3.50;;;;;;;13.45;100.00;96395.30;109566;1250;59824;-77
2024/03/28 06:22:34;;;;;;;12.40;3.80;;;;;;;13.45;100.00;96399.79;109603;1250;60196;-77
2024/03/28 06:25:01;;;;;;;9.40;3.40;;;;;;;13.43;100.00;96403.73;109604;1250;60685;-77
2024/03/28 06:27:28;;;;;;;9.00;2.70;;;;;;;13.45;100.00;96410.05;109617;1250;60135;-77
2024/03/28 06:29:54;;;;;;;6.00;2.70;;;;;;;13.48;100.00;96412.96;109614;1250;59830;-77
2024/03/28 06:32:29;;;;;;;8.60;2.80;;;;;;;13.50;100.00;96411.10;109561;1250;59884;-77
2024/03/28 06:34:58;;;;;;;11.20;2.80;;;;;;;13.51;100.00;96417.39;109554;1250;59799;-77
2024/03/28 06:37:25;;;;;;;9.40;2.70;;;;;;;13.50;100.00;96417.33;109619;1250;59775;-77
2024/03/28 06:39:54;;;;;;;10.20;2.50;;;;;;;13.49;100.00;96416.52;109616;1250;67213;-77
2024/03/28 06:42:20;;;;;;;9.60;2.90;;;;;;;13.49;100.00;96419.54;109501;1250;60233;-77
2024/03/28 06:44:49;;;;;;;8.00;2.40;;;;;;;13.49;100.00;96430.57;109457;1250;62797;-78
2024/03/28 06:47:16;;;;;;;9.10;2.50;;;;;;;13.50;100.00;96437.52;109600;1250;59819;-77
2024/03/28 06:49:43;;;;;;;10.80;3.20;;;;;;;13.49;100.00;96440.64;109638;1250;59668;-78
2024/03/28 06:52:10;;;;;;;10.70;4.00;;;;;;;13.49;100.00;96429.98;109605;1249;66927;-77
2024/03/28 06:54:36;;;;;;;7.80;2.30;;;;;;;13.51;100.00;96423.56;109633;1250;60170;-77
2024/03/28 06:57:04;;;;;;;7.00;2.90;;;;;;;13.56;100.00;96435.32;109420;1250;59889;-78
2024/03/28 06:59:31;;;;;;;7.70;2.80;;;;;;;13.60;100.00;96447.14;109575;1250;59769;-77
2024/03/28 07:01:57;;;;;;;7.30;3.10;;;;;;;13.68;100.00;96448.66;109641;1250;59750;-77
2024/03/28 07:04:24;;;;;;;8.90;3.50;;;;;;;13.81;100.00;96450.55;109625;1250;59901;-78
2024/03/28 07:06:51;;;;;;;9.00;3.20;;;;;;;13.96;100.00;96458.54;109610;1250;59890;-77
2024/03/28 07:09:17;;;;;;;9.90;3.20;;;;;;;14.12;100.00;96467.60;109607;1250;62549;-78
2024/03/28 07:11:45;;;;;;;10.30;3.90;;;;;;;14.28;100.00;96467.63;109563;1250;59809;-79
2024/03/28 07:14:13;;;;;;;12.80;4.30;;;;;;;14.47;100.00;96478.90;109603;1250;59835;-77
2024/03/28 07:16:40;;;;;;;11.40;4.10;;;;;;;14.67;100.00;96487.39;109641;1250;66849;-78
2024/03/28 07:19:06;;;;;;;15.70;4.10;;;;;;;14.81;100.00;96477.56;109605;1251;59912;-77
2024/03/28 07:21:32;;;;;;;13.40;4.40;;;;;;;14.95;100.00;96474.60;109605;1250;59782;-78
2024/03/28 07:23:59;;;;;;;15.00;4.90;;;;;;;15.05;100.00;96471.19;109296;1250;59884;-77
2024/03/28 07:26:26;;;;;;;12.40;4.30;;;;;;;15.12;100.00;96473.32;109665;1250;59814;-76
2024/03/28 07:28:52;;;;;;;10.80;4.30;;;;;;;15.15;100.00;96484.73;109599;1250;67281;-78
2024/03/28 07:31:19;;;;;;;11.10;3.50;;;;;;;15.14;100.00;96489.68;109674;1250;59802;-77
2024/03/28 07:33:45;;;;;;;9.80;4.00;;;;;;;15.19;100.00;96490.42;109579;1250;59941;-77
2024/03/28 07:36:11;;;;;;;10.90;3.90;;;;;;;15.31;100.00;96500.23;109563;1250;59731;-77
2024/03/28 07:38:38;;;;;;;7.80;3.40;;;;;;;15.43;100.00;96507.67;109618;1251;59750;-77
2024/03/28 07:41:04;;;;;;;7.20;2.20;;;;;;;15.43;100.00;96509.56;109635;1250;59846;-78
2024/03/28 07:43:31;;;;;;;4.50;2.50;;;;;;;15.37;100.00;96513.97;109571;1250;59833;-77
2024/03/28 07:46:04;;;;;;;5.40;2.80;;;;;;;15.31;100.00;96512.10;109610;1250;59820;-77
2024/03/28 07:48:33;;;;;;;4.00;2.00;;;;;;;15.24;100.00;96511.35;109484;1250;59759;-78
2024/03/28 07:51:00;;;;;;;11.00;2.60;;;;;;;15.10;100.00;96510.77;109265;1250;59792;-78
2024/03/28 07:53:27;;;;;;;4.60;1.60;;;;;;;14.91;100.00;96507.98;109602;1250;66157;-78
2024/03/28 07:55:54;;;;;;;5.50;1.90;;;;;;;14.75;100.00;96502.82;109299;1250;59847;-76
2024/03/28 07:58:21;;;;;;;10.10;2.80;;;;;;;14.67;100.00;96500.89;109573;1250;64060;-79
2024/03/28 08:00:48;;;;;;;7.40;3.10;;;;;;;14.67;100.00;96507.16;109630;1250;59881;-78
2024/03/28 08:03:16;;;;;;;6.40;2.30;;;;;;;14.65;100.00;96507.63;109624;1250;59790;-76
2024/03/28 08:05:43;;;;;;;4.20;1.90;;;;;;;14.60;100.00;96506.86;109622;1250;65202;-77
2024/03/28 08:08:10;;;;;;;5.30;1.90;;;;;;;14.52;100.00;96510.96;109600;1250;59837;-82
2024/03/28 08:10:36;;;;;;;4.00;2.10;;;;;;;14.48;100.00;96503.90;109611;1250;64896;-78
2024/03/28 08:13:03;;;;;;;5.80;2.00;;;;;;;14.49;100.00;96500.77;109609;1250;59940;-78
2024/03/28 08:15:33;;;;;;;5.30;2.50;;;;;;;14.63;100.00;96503.60;109629;1250;59677;-77
2024/03/28 08:18:00;;;;;;;7.70;2.60;;;;;;;14.80;100.00;96501.80;109558;1250;67113;-77
2024/03/28 08:20:29;;;;;;;7.10;2.60;;;;;;;14.79;100.00;96506.76;109638;1250;60065;-79
2024/03/28 08:22:59;;;;;;;5.90;2.60;;;;;;;14.73;100.00;96504.90;109618;1250;62873;-76
2024/03/28 08:25:28;;;;;;;7.00;2.80;;;;;;;14.74;100.00;96502.03;109583;1250;59781;-76
2024/03/28 08:27:56;;;;;;;6.40;2.90;;;;;;;14.89;100.00;96502.02;109631;1250;59791;-76
2024/03/28 08:30:22;;;;;;;6.50;2.40;;;;;;;15.11;99.74;96509.83;109597;1250;68009;-77
2024/03/28 08:32:50;;;;;;;3.90;2.50;;;;;;;15.30;98.24;96516.17;109608;1250;59787;-77
2024/03/28 08:35:18;;;;;;;6.00;2.20;;;;;;;15.42;96.25;96515.17;109579;1250;62844;-77
2024/03/28 08:37:45;;;;;;;3.80;2.40;;;;;;;15.42;93.47;96525.61;109424;1250;60137;-76
2024/03/28 08:40:11;;;;;;;3.40;1.60;;;;;;;15.33;93.19;96533.30;109643;1250;59801;-76
2024/03/28 08:42:38;;;;;;;4.80;1.90;;;;;;;15.16;91.47;96541.65;109605;1250;59813;-76
2024/03/28 08:45:08;;;;;;;3.10;1.70;;;;;;;15.03;92.68;96545.61;109638;1250;59854;-76
2024/03/28 08:47:40;;;;;;;4.40;2.00;;;;;;;14.99;92.89;96545.82;109609;1250;63879;-75
2024/03/28 08:50:07;;;;;;;3.80;2.10;;;;;;;15.04;92.08;96541.98;109584;1250;59737;-75
2024/03/28 08:52:33;;;;;;;8.10;3.60;;;;;;;15.17;91.43;96533.11;109515;1251;59759;-77
2024/03/28 08:55:00;;;;;;;2.60;2.40;;;;;;;15.40;91.22;96539.59;109563;1250;59882;-76
2024/03/28 08:57:27;;;;;;;3.60;2.00;;;;;;;15.64;90.22;96541.38;109580;1253;59817;-76
2024/03/28 08:59:54;;;;;;;12.60;10.70;;;;;;;15.88;89.50;96535.45;109596;1250;63779;-76
2024/03/28 09:02:22;;;;;;;5.10;2.20;;;;;;;16.26;87.84;96533.11;109581;1250;59852;-77
2024/03/28 09:04:49;;;;;;;2.50;1.40;;;;;;;16.70;83.90;96540.97;109608;1251;59669;-77
2024/03/28 09:07:16;;;;;;;2.50;1.00;;;;;;;17.05;79.95;96547.09;109586;1249;68005;-76
2024/03/28 09:09:42;;;;;;;6.00;2.20;;;;;;;17.14;75.93;96553.33;109630;1250;59757;-76
2024/03/28 09:12:10;;;;;;;1.40;0.60;;;;;;;17.01;73.96;96563.52;109624;1250;59867;-76
2024/03/28 09:14:38;;;;;;;2.60;1.00;;;;;;;16.76;71.73;96567.30;109317;1250;59821;-76
2024/03/28 09:17:04;;;;;;;1.70;0.70;;;;;;;16.54;70.92;96574.40;109577;1250;59706;-76
2024/03/28 09:19:31;;;;;;;3.10;0.60;;;;;;;16.34;70.21;96581.20;109646;1250;59803;-76
2024/03/28 09:21:58;;;;;;;9.70;1.20;;;;;;;16.11;70.69;96585.44;109578;1250;60335;-77
2024/03/28 09:24:25;;;;;;;8.90;1.00;;;;;;;15.88;71.14;96583.64;109631;1250;59776;-76
2024/03/28 09:26:52;;;;;;;4.30;0.70;;;;;;;15.69;71.87;96597.72;109577;1250;59855;-77
2024/03/28 09:29:21;;;;;;;4.30;1.10;;;;;;;15.49;72.42;96613.92;109536;1250;59761;-77
2024/03/28 09:31:48;;;;;;;3.20;0.80;;;;;;;15.24;72.73;96627.06;109624;1250;75959;-76
2024/03/28 09:34:15;;;;;;;2.40;1.20;;;;;;;15.05;72.93;96625.12;109639;1250;59805;-77
2024/03/28 09:36:42;;;;;;;2.70;1.30;;;;;;;14.89;73.08;96627.94;109506;1250;65227;-76
2024/03/28 09:39:11;;;;;;;4.00;2.30;;;;;;;14.71;73.65;96648.21;109649;1250;59753;-77
2024/03/28 09:41:46;;;;;;;1.90;0.90;;;;;;;14.50;74.85;96662.34;109647;1250;59683;-75
2024/03/28 09:44:18;;;;;;;3.70;0.90;;;;;;;14.37;75.52;96664.63;109607;1250;66546;-77
2024/03/28 09:46:48;;;;;;;1.90;1.10;;;;;;;14.39;75.65;96669.02;109510;1250;61757;-75
2024/03/28 09:49:16;;;;;;;1.50;1.20;;;;;;;14.44;76.16;96679.98;109617;1250;63795;-76
2024/03/28 09:51:51;;;;;;;1.90;0.80;;;;;;;14.51;76.51;96684.78;109599;1250;60085;-76
2024/03/28 09:54:18;;;;;;;3.40;1.00;;;;;;;14.62;77.08;96694.66;109632;1250;59674;-77
2024/03/28 09:56:45;;;;;;;3.40;1.10;;;;;;;14.88;77.07;96705.48;109594;1250;65237;-75
2024/03/28 09:59:11;;;;;;;2.10;0.70;;;;;;;15.10;76.92;96709.45;109669;1250;60139;-77
2024/03/28 10:01:40;;;;;;;1.60;0.70;;;;;;;15.23;76.22;96714.92;109606;1250;59874;-77
2024/03/28 10:04:13;;;;;;;3.50;1.20;;;;;;;15.21;74.06;96724.77;109279;1250;137038;-78
2024/03/28 10:06:54;;;;;;;2.00;0.60;;;;;;;15.29;74.21;96719.16;109601;1250;59828;-76
2024/03/28 10:09:24;;;;;;;2.00;0.40;;;;;;;15.57;74.44;96701.39;109645;1250;66571;-77
2024/03/28 10:11:51;;;;;;;2.40;0.60;;;;;;;15.80;73.98;96699.98;109642;1251;60146;-76
2024/03/28 10:14:22;;;;;;;2.60;0.80;;;;;;;15.92;73.06;96711.53;109642;1250;64186;-76
2024/03/28 10:16:49;;;;;;;1.70;0.70;;;;;;;15.98;72.57;96706.82;109619;1250;59856;-76
2024/03/28 10:19:21;;;;;;;3.40;0.60;;;;;;;16.09;71.93;96706.88;109625;1250;59933;-75
2024/03/28 10:21:48;;;;;;;2.10;0.50;;;;;;;16.17;71.64;96707.61;109289;1250;66928;-76
2024/03/28 10:24:18;;;;;;;1.90;0.60;;;;;;;16.27;71.11;96714.35;109678;1250;59838;-76
2024/03/28 10:26:45;;;;;;;4.60;1.00;;;;;;;16.45;71.25;96714.20;109597;1250;63936;-75
2024/03/28 10:29:12;;;;;;;2.10;0.70;;;;;;;16.67;70.90;96717.09;109604;1250;60161;-76
2024/03/28 10:31:42;;;;;;;1.00;0.50;;;;;;;16.72;70.34;96717.69;109527;1250;59886;-76
2024/03/28 10:34:15;;;;;;;2.30;0.60;;;;;;;16.71;70.03;96718.02;109595;1250;67947;-77
2024/03/28 10:36:42;;;;;;;0.90;0.60;;;;;;;16.74;69.74;96728.91;109641;1250;59783;-76
2024/03/28 10:39:09;;;;;;;1.80;0.50;;;;;;;16.57;67.99;96730.38;109608;1250;59849;-78
2024/03/28 10:41:35;;;;;;;1.60;0.40;;;;;;;16.39;67.82;96733.43;109598;1250;59792;-78
2024/03/28 10:44:02;;;;;;;2.50;0.50;;;;;;;16.32;68.22;96737.51;109260;1250;59938;-76
2024/03/28 10:46:29;;;;;;;0.80;0.40;;;;;;;16.42;67.86;96731.17;109621;1250;66831;-75
2024/03/28 10:49:05;;;;;;;2.20;0.50;;;;;;;16.73;68.19;96716.33;109659;1250;60513;-76
2024/03/28 10:51:35;;;;;;;2.40;0.70;;;;;;;16.96;67.22;96718.98;109621;1250;64184;-77
2024/03/28 10:54:20;;;;;;;0.90;0.60;;;;;;;16.96;65.80;96727.55;109629;1250;59772;-77
2024/03/28 10:56:46;;;;;;;0.80;0.70;;;;;;;16.94;65.99;96735.55;109617;1250;59680;-76
2024/03/28 10:59:14;;;;;;;2.10;0.50;;;;;;;17.03;65.76;96746.59;109695;1250;66854;-76
2024/03/28 11:01:41;;;;;;;1.90;0.60;;;;;;;17.13;65.58;96760.77;109629;1250;59862;-75
2024/03/28 11:04:11;;;;;;;3.20;0.80;;;;;;;17.17;64.78;96760.73;109641;1250;59889;-76
2024/03/28 11:06:37;;;;;;;;;;;;;;;17.02;64.79;96763.56;109624;1250;59798;-77
2024/03/28 11:09:05;;;;;;;1.80;0.60;;;;;;;16.86;63.52;96773.84;109609;1250;59793;-76
2024/03/28 11:11:32;;;;;;;1.70;0.50;;;;;;;16.90;65.38;96773.13;109653;1250;66697;-77
2024/03/28 11:13:58;;;;;;;1.10;0.40;;;;;;;17.19;65.05;96770.90;109680;1250;60092;-76
2024/03/28 11:16:25;;;;;;;1.00;0.90;;;;;;;17.47;64.72;96768.50;109621;1250;59884;-75
2024/03/28 11:18:51;;;;;;;0.80;0.80;;;;;;;17.48;63.72;96771.02;109590;1250;59770;-76
2024/03/28 11:21:28;;;;;;;3.20;1.20;;;;;;;17.12;63.35;96774.33;109614;1251;59969;-76
2024/03/28 11:23:54;;;;;;;1.30;0.60;;;;;;;16.82;64.07;96775.75;109509;1250;66947;-76